This is the latest recevied weather packets stored in our database for station/object KC0AFB. If no packets are shown the sender has not sent any weather packets the latest 1 day(s).
| Time | Temp. | Humidity | Pressure | Rain* | Wind** | Luminosity | Snow |
|---|---|---|---|---|---|---|---|
| 1778067690 | -2.22° C | 76% | 1017.7 hPa | 0 mm | - | 6 W/m² | - |
| 1778067085 | -2.78° C | 77% | 1017.8 hPa | 0 mm | - | 2 W/m² | - |
| 1778066479 | -2.78° C | 78% | 1018 hPa | 0 mm | - | 0 W/m² | - |
| 1778066176 | -3.33° C | 79% | 1017.9 hPa | 0 mm | - | 0 W/m² | - |
| 1778065874 | -3.33° C | 79% | 1017.5 hPa | 0 mm | - | 0 W/m² | - |
| 1778065571 | -3.33° C | 79% | 1017.8 hPa | 0 mm | - | 0 W/m² | - |
| 1778064662 | -3.33° C | 79% | 1017.7 hPa | 0 mm | - | 0 W/m² | - |
| 1778063754 | -3.33° C | 77% | 1017.5 hPa | 0 mm | - | 0 W/m² | - |
| 1778063451 | -3.33° C | 77% | 1017.6 hPa | 0 mm | - | 0 W/m² | - |
| 1778062543 | -2.78° C | 74% | 1017.7 hPa | 0 mm | - | 0 W/m² | - |
| 1778061335 | -2.22° C | 73% | 1017.6 hPa | 0 mm | - | 0 W/m² | - |
| 1778061031 | -2.22° C | 73% | 1017.6 hPa | 0 mm | - | 0 W/m² | - |
| 1778058611 | -2.22° C | 73% | 1017.8 hPa | 0 mm | - | 0 W/m² | - |
| 1778058309 | -2.22° C | 73% | 1017.6 hPa | 0 mm | - | 0 W/m² | - |
| 1778058005 | -2.22° C | 73% | 1017.7 hPa | 0 mm | - | 0 W/m² | - |
| 1778057398 | -2.78° C | 75% | 1017.4 hPa | 0 mm | - | 0 W/m² | - |
| 1778057095 | -3.33° C | 76% | 1017.6 hPa | 0 mm | - | 0 W/m² | - |
| 1778056791 | -3.33° C | 76% | 1017.6 hPa | 0 mm | - | 0 W/m² | - |
| 1778056186 | -2.78° C | 74% | 1017.7 hPa | 0 mm | - | 0 W/m² | - |
| 1778055578 | -2.22° C | 73% | 1017.5 hPa | 0 mm | - | 0 W/m² | - |
| 1778054974 | -2.78° C | 74% | 1017.4 hPa | 0 mm | - | 0 W/m² | - |
| 1778054066 | -1.67° C | 70% | 1017.5 hPa | 0 mm | - | 0 W/m² | - |
| 1778052855 | -1.11° C | 68% | 1017.3 hPa | 0 mm | - | 0 W/m² | - |
| 1778052552 | -1.11° C | 67% | 1017.4 hPa | 0 mm | - | 0 W/m² | - |
| 1778052249 | -1.11° C | 67% | 1017.6 hPa | 0 mm | - | 0 W/m² | - |
* Rain latest hour (hover to see other rain measurements)
** Current wind speed in m/s (hover to see current wind gust speed)